createdAt,value
2019-06-20T00:00:35.444Z,100669.56
2019-06-20T00:03:07.127Z,100666.19
2019-06-20T00:05:38.449Z,100672.73
2019-06-20T00:08:11.787Z,100678.45
2019-06-20T00:10:43.882Z,100675.67
2019-06-20T00:13:15.189Z,100677.69
2019-06-20T00:15:46.905Z,100677.14
2019-06-20T00:18:18.489Z,100684.23
2019-06-20T00:20:50.370Z,100681.43
2019-06-20T00:23:21.822Z,100687.44
2019-06-20T00:25:53.771Z,100689.47
2019-06-20T00:28:25.429Z,100689.45
2019-06-20T00:30:57.547Z,100692.57
2019-06-20T00:33:29.148Z,100696.84
2019-06-20T00:36:00.900Z,100689.83
2019-06-20T00:38:32.363Z,100691.45
2019-06-20T00:41:04.007Z,100701.31
2019-06-20T00:43:38.018Z,100699.08
2019-06-20T00:46:09.675Z,100697.14
2019-06-20T00:48:41.196Z,100696.88
2019-06-20T00:51:12.708Z,100696.62
2019-06-20T00:53:45.045Z,100696.92
2019-06-20T00:56:16.763Z,100694.95
2019-06-20T00:58:48.655Z,100694.74
2019-06-20T01:01:20.416Z,100703.50
2019-06-20T01:03:52.169Z,100708.01
2019-06-20T01:06:23.932Z,100707.74
2019-06-20T01:08:57.525Z,100703.23
2019-06-20T01:11:29.186Z,100704.13
2019-06-20T01:14:01.142Z,100706.68
2019-06-20T01:16:34.744Z,100704.13
2019-06-20T01:19:06.235Z,100706.69
2019-06-20T01:21:38.127Z,100708.66
2019-06-20T01:24:10.013Z,100711.75
2019-06-20T01:26:41.713Z,100712.34
2019-06-20T01:29:13.431Z,100700.44
2019-06-20T01:31:45.282Z,100706.12
2019-06-20T01:34:16.936Z,100711.19
2019-06-20T01:36:49.001Z,100707.25
2019-06-20T01:39:20.860Z,100714.66
2019-06-20T01:41:52.563Z,100708.69
2019-06-20T01:44:24.478Z,100713.23
2019-06-20T01:46:56.361Z,100716.05
2019-06-20T01:49:27.787Z,100712.95
2019-06-20T01:51:59.335Z,100716.05
2019-06-20T01:54:30.735Z,100721.70
2019-06-20T01:57:03.360Z,100724.27
2019-06-20T01:59:35.271Z,100725.69
2019-06-20T02:02:08.318Z,100729.89
2019-06-20T02:04:40.245Z,100729.06
2019-06-20T02:07:11.823Z,100733.86
2019-06-20T02:09:44.912Z,100731.60
2019-06-20T02:12:18.114Z,100731.31
2019-06-20T02:14:52.317Z,100733.56
2019-06-20T02:17:24.072Z,100736.69
2019-06-20T02:19:57.775Z,100735.23
2019-06-20T02:22:29.636Z,100733.75
2019-06-20T02:25:01.285Z,100739.12
2019-06-20T02:27:33.021Z,100735.75
2019-06-20T02:30:05.890Z,100742.52
2019-06-20T02:32:37.376Z,100736.59
2019-06-20T02:35:09.234Z,100745.92
2019-06-20T02:37:40.992Z,100740.55
2019-06-20T02:40:12.859Z,100747.06
2019-06-20T02:42:44.905Z,100742.55
2019-06-20T02:45:16.260Z,100746.20
2019-06-20T02:47:48.527Z,100746.50
2019-06-20T02:50:20.591Z,100743.67
2019-06-20T02:52:52.046Z,100748.20
2019-06-20T02:55:24.323Z,100752.44
2019-06-20T02:57:56.274Z,100743.64
2019-06-20T03:00:39.909Z,100744.46
2019-06-20T03:03:11.562Z,100747.58
2019-06-20T03:05:43.020Z,100743.02
2019-06-20T03:08:14.156Z,100753.17
2019-06-20T03:10:45.908Z,100755.45
2019-06-20T03:13:18.386Z,100746.39
2019-06-20T03:15:50.207Z,100750.89
2019-06-20T03:18:22.000Z,100758.80
2019-06-20T03:20:53.223Z,100759.95
2019-06-20T03:23:26.745Z,100761.67
2019-06-20T03:26:00.960Z,100760.20
2019-06-20T03:28:32.299Z,100756.80
2019-06-20T03:31:04.377Z,100762.16
2019-06-20T03:33:35.961Z,100764.70
2019-06-20T03:36:08.079Z,100766.13
2019-06-20T03:38:39.837Z,100768.91
2019-06-20T03:41:11.598Z,100762.59
2019-06-20T03:43:43.460Z,100759.98
2019-06-20T03:46:15.107Z,100764.14
2019-06-20T03:48:46.765Z,100755.11
2019-06-20T03:51:18.519Z,100762.19
2019-06-20T03:53:50.275Z,100757.04
2019-06-20T03:56:22.135Z,100757.06
2019-06-20T03:58:54.123Z,100754.48
2019-06-20T04:01:27.286Z,100755.00
2019-06-20T04:03:58.945Z,100757.72
2019-06-20T04:06:32.037Z,100756.82
2019-06-20T04:09:05.042Z,100756.45
2019-06-20T04:11:36.667Z,100756.16
2019-06-20T04:14:08.105Z,100753.59
2019-06-20T04:16:39.675Z,100757.75
2019-06-20T04:19:11.374Z,100753.97
2019-06-20T04:21:43.076Z,100749.69
2019-06-20T04:24:14.636Z,100756.17
2019-06-20T04:26:46.387Z,100758.20
2019-06-20T04:29:19.702Z,100760.72
2019-06-20T04:31:51.445Z,100752.25
2019-06-20T04:34:23.094Z,100752.69
2019-06-20T04:36:54.864Z,100755.18
2019-06-20T04:39:26.813Z,100747.91
2019-06-20T04:41:58.371Z,100747.86
2019-06-20T04:44:30.187Z,100746.45
2019-06-20T04:47:03.636Z,100748.70
2019-06-20T04:49:36.400Z,100755.07
2019-06-20T04:52:08.054Z,100742.44
2019-06-20T04:54:40.510Z,100744.80
2019-06-20T04:57:12.495Z,100748.64
2019-06-20T04:59:43.936Z,100744.91
2019-06-20T05:02:20.022Z,100747.30
2019-06-20T05:04:51.835Z,100747.78
2019-06-20T05:07:23.606Z,100743.42
2019-06-20T05:09:55.271Z,100744.16
2019-06-20T05:12:26.833Z,100747.06
2019-06-20T05:15:00.723Z,100745.58
2019-06-20T05:17:32.508Z,100743.73
2019-06-20T05:20:07.935Z,100754.58
2019-06-20T05:22:40.911Z,100750.30
2019-06-20T05:25:13.129Z,100749.98
2019-06-20T05:27:46.165Z,100755.58
2019-06-20T05:30:17.856Z,100755.02
2019-06-20T05:32:49.678Z,100746.61
2019-06-20T05:35:21.464Z,100746.80
2019-06-20T05:37:53.030Z,100746.14
2019-06-20T05:40:25.049Z,100748.54
2019-06-20T05:42:56.721Z,100748.59
2019-06-20T05:45:28.461Z,100746.46
2019-06-20T05:47:59.915Z,100754.55
2019-06-20T05:50:33.021Z,100753.92
2019-06-20T05:53:05.674Z,100757.70
2019-06-20T05:55:37.226Z,100751.23
2019-06-20T05:58:08.573Z,100755.24
2019-06-20T06:00:40.235Z,100754.78
2019-06-20T06:03:13.793Z,100757.02
2019-06-20T06:05:45.165Z,100744.34
2019-06-20T06:08:16.931Z,100744.31
2019-06-20T06:10:49.044Z,100746.83
2019-06-20T06:13:20.952Z,100756.97
2019-06-20T06:15:55.401Z,100745.97
2019-06-20T06:18:28.153Z,100744.27
2019-06-20T06:21:00.073Z,100740.08
2019-06-20T06:23:31.361Z,100739.62
2019-06-20T06:26:03.120Z,100737.27
2019-06-20T06:28:34.981Z,100729.70
2019-06-20T06:31:07.197Z,100743.42
2019-06-20T06:33:39.019Z,100735.05
2019-06-20T06:36:13.427Z,100730.58
2019-06-20T06:38:45.095Z,100735.48
2019-06-20T06:41:16.883Z,100731.63
2019-06-20T06:43:49.633Z,100730.42
2019-06-20T06:46:20.860Z,100738.16
2019-06-20T06:48:52.619Z,100730.59
2019-06-20T06:51:25.279Z,100731.20
2019-06-20T06:53:57.669Z,100723.27
2019-06-20T06:56:28.903Z,100725.98
2019-06-20T06:59:00.424Z,100720.80
2019-06-20T07:01:32.785Z,100735.81
2019-06-20T07:04:04.414Z,100731.50
2019-06-20T07:06:35.864Z,100730.26
2019-06-20T07:09:08.695Z,100728.92
2019-06-20T07:11:41.576Z,100725.10
2019-06-20T07:14:13.359Z,100723.10
2019-06-20T07:50:39.496Z,100722.77
2019-06-20T07:53:11.384Z,100716.88
2019-06-20T07:55:43.682Z,100701.72
2019-06-20T07:58:18.200Z,100700.39
2019-06-20T08:00:53.504Z,100701.92
2019-06-20T08:03:24.759Z,100698.61
2019-06-20T08:05:56.458Z,100695.88
2019-06-20T08:08:30.723Z,100698.56
2019-06-20T08:11:03.674Z,100690.58
2019-06-20T08:13:37.247Z,100693.78
2019-06-20T08:16:08.684Z,100699.03
2019-06-20T08:18:41.431Z,100696.02
2019-06-20T08:21:13.809Z,100689.14
2019-06-20T08:23:47.270Z,100692.47
2019-06-20T08:26:18.856Z,100685.78
2019-06-20T08:29:07.282Z,100690.60
2019-06-20T08:31:27.513Z,100694.54
2019-06-20T08:34:02.270Z,100686.42
2019-06-20T08:36:33.795Z,100685.86
2019-06-20T08:39:09.782Z,100684.51
2019-06-20T08:41:41.692Z,100687.68
2019-06-20T08:44:14.362Z,100689.69
2019-06-20T08:46:48.068Z,100684.98
2019-06-20T08:49:19.327Z,100682.88
2019-06-20T08:51:51.080Z,100687.55
2019-06-20T08:54:24.865Z,100683.53
2019-06-20T08:56:58.988Z,100683.58
2019-06-20T09:06:12.891Z,100688.83
2019-06-20T09:08:45.631Z,100682.41
2019-06-20T09:11:18.926Z,100683.44
2019-06-20T09:13:51.055Z,100687.23
2019-06-20T09:16:24.726Z,100684.37
2019-06-20T09:18:56.775Z,100676.09
2019-06-20T09:21:28.248Z,100682.92
2019-06-20T09:24:00.014Z,100687.12
2019-06-20T09:26:34.118Z,100679.30
2019-06-20T09:29:05.375Z,100685.14
2019-06-20T09:31:37.008Z,100684.34
2019-06-20T09:34:11.090Z,100682.38
2019-06-20T09:36:42.784Z,100677.27
2019-06-20T09:39:14.231Z,100679.09
2019-06-20T09:41:46.397Z,100673.10
2019-06-20T09:44:18.255Z,100671.53
2019-06-20T09:46:51.154Z,100671.77
2019-06-20T09:49:23.104Z,100671.36
2019-06-20T09:51:56.629Z,100673.75
2019-06-20T09:54:28.363Z,100681.98
2019-06-20T09:57:02.774Z,100675.12
2019-06-20T09:59:34.857Z,100669.33
2019-06-20T10:02:06.520Z,100672.70
2019-06-20T10:04:52.407Z,100671.04
2019-06-20T10:07:24.033Z,100676.84
2019-06-20T10:09:56.308Z,100660.95
2019-06-20T10:12:30.832Z,100661.47
2019-06-20T10:15:02.496Z,100651.55
2019-06-20T10:17:35.582Z,100662.88
2019-06-20T10:20:09.125Z,100667.55
2019-06-20T10:22:42.197Z,100653.45
2019-06-20T10:25:12.718Z,100657.09
2019-06-20T10:27:46.633Z,100657.59
2019-06-20T10:30:21.666Z,100651.67
2019-06-20T10:32:53.477Z,100648.38
2019-06-20T10:35:26.169Z,100653.11
2019-06-20T10:37:58.888Z,100654.98
2019-06-20T10:40:30.695Z,100654.47
2019-06-20T10:43:02.075Z,100639.48
2019-06-20T10:45:34.251Z,100647.76
2019-06-20T10:48:05.988Z,100642.59
2019-06-20T10:50:37.628Z,100644.86
2019-06-20T10:53:09.586Z,100647.73
2019-06-20T10:55:42.078Z,100654.02
2019-06-20T10:58:14.376Z,100651.03
2019-06-20T11:00:46.205Z,100647.69
2019-06-20T11:03:17.947Z,100649.30
2019-06-20T11:05:50.771Z,100659.50
2019-06-20T11:08:22.148Z,100644.98
2019-06-20T11:10:56.602Z,100651.28
2019-06-20T11:13:27.940Z,100648.00
2019-06-20T11:16:01.748Z,100648.80
2019-06-20T11:18:33.191Z,100645.91
2019-06-20T11:21:04.549Z,100647.20
2019-06-20T11:23:36.494Z,100650.28
2019-06-20T11:26:09.185Z,100653.73
2019-06-20T11:28:41.428Z,100642.51
2019-06-20T11:31:13.926Z,100643.98
2019-06-20T11:33:45.380Z,100639.06
2019-06-20T11:36:17.132Z,100639.23
2019-06-20T11:38:49.225Z,100641.20
2019-06-20T11:41:20.743Z,100637.98
2019-06-20T11:43:52.142Z,100635.92
2019-06-20T11:46:24.005Z,100635.02
2019-06-20T11:48:55.399Z,100631.98
2019-06-20T11:51:27.318Z,100625.92
2019-06-20T11:54:00.162Z,100627.27
2019-06-20T11:56:31.527Z,100628.59
2019-06-20T11:59:03.352Z,100635.04
2019-06-20T12:01:36.541Z,100633.42
2019-06-20T12:04:09.495Z,100626.00
2019-06-20T12:06:41.814Z,100618.03
2019-06-20T12:09:14.574Z,100623.40
2019-06-20T12:11:46.791Z,100620.95
2019-06-20T12:14:18.711Z,100621.73
2019-06-20T12:16:50.058Z,100617.09
2019-06-20T12:19:21.676Z,100608.28
2019-06-20T12:21:56.244Z,100612.77
2019-06-20T12:24:29.213Z,100613.16
2019-06-20T12:27:01.994Z,100620.22
2019-06-20T12:29:33.667Z,100615.77
2019-06-20T12:32:09.264Z,100615.16
2019-06-20T12:34:40.528Z,100604.97
2019-06-20T12:37:12.818Z,100612.03
2019-06-20T12:39:44.506Z,100603.79
2019-06-20T12:42:17.555Z,100601.97
2019-06-20T12:44:50.818Z,100589.34
2019-06-20T12:47:23.727Z,100599.16
2019-06-20T12:49:55.379Z,100599.58
2019-06-20T12:52:27.457Z,100595.14
2019-06-20T12:54:59.198Z,100591.61
2019-06-20T12:57:30.919Z,100590.99
2019-06-20T13:00:02.203Z,100593.55
2019-06-20T13:02:34.473Z,100589.99
2019-06-20T13:05:07.664Z,100588.20
2019-06-20T13:07:42.378Z,100594.30
2019-06-20T13:10:14.857Z,100594.84
2019-06-20T13:12:46.428Z,100591.92
2019-06-20T13:15:19.202Z,100587.75
2019-06-20T13:17:50.613Z,100582.79
2019-06-20T13:20:22.501Z,100583.77
2019-06-20T13:22:55.057Z,100578.50
2019-06-20T13:25:26.539Z,100581.66
2019-06-20T13:27:58.189Z,100579.91
2019-06-20T13:30:29.941Z,100565.92
2019-06-20T13:33:02.756Z,100576.79
2019-06-20T13:35:39.945Z,100575.70
2019-06-20T13:38:12.639Z,100568.12
2019-06-20T13:40:45.373Z,100564.92
2019-06-20T13:43:17.326Z,100570.00
2019-06-20T13:45:49.878Z,100569.59
2019-06-20T13:48:21.962Z,100562.91
2019-06-20T13:50:53.632Z,100557.03
2019-06-20T13:53:26.222Z,100554.55
2019-06-20T13:55:57.953Z,100550.17
2019-06-20T13:58:29.604Z,100552.14
2019-06-20T14:01:01.269Z,100545.53
2019-06-20T14:03:32.914Z,100548.94
2019-06-20T14:06:05.800Z,100549.39
2019-06-20T14:08:37.760Z,100544.17
2019-06-20T14:11:09.820Z,100546.81
2019-06-20T14:13:42.795Z,100551.29
2019-06-20T14:16:14.358Z,100555.66
2019-06-20T14:18:46.835Z,100556.11
2019-06-20T14:21:18.177Z,100552.66
2019-06-20T14:23:49.531Z,100553.33
2019-06-20T14:26:20.703Z,100552.56
2019-06-20T14:28:52.532Z,100554.58
2019-06-20T14:31:25.836Z,100556.20
2019-06-20T14:33:57.379Z,100560.38
2019-06-20T14:36:28.889Z,100560.73
2019-06-20T14:39:00.168Z,100563.77
2019-06-20T14:41:31.483Z,100566.55
2019-06-20T14:44:04.707Z,100559.84
2019-06-20T14:46:36.358Z,100563.36
2019-06-20T14:49:08.938Z,100563.77
2019-06-20T14:51:41.207Z,100568.44
2019-06-20T14:54:12.048Z,100562.89
2019-06-20T14:56:44.994Z,100567.81
2019-06-20T14:59:16.880Z,100572.47
2019-06-20T15:01:48.743Z,100574.25
2019-06-20T15:04:20.091Z,100578.48
2019-06-20T15:06:52.372Z,100566.36
2019-06-20T15:09:24.121Z,100565.92
2019-06-20T15:11:55.772Z,100565.81
2019-06-20T15:14:27.357Z,100564.36
2019-06-20T15:16:58.875Z,100569.18
2019-06-20T15:19:30.119Z,100559.04
2019-06-20T15:22:01.779Z,100564.66
2019-06-20T15:24:33.450Z,100572.87
2019-06-20T15:27:04.774Z,100566.74
2019-06-20T15:29:36.371Z,100562.80
2019-06-20T15:32:07.983Z,100569.26
2019-06-20T15:34:39.535Z,100573.30
2019-06-20T15:37:12.019Z,100566.19
2019-06-20T15:39:43.760Z,100568.20
2019-06-20T15:42:14.880Z,100565.05
2019-06-20T15:44:47.256Z,100570.45
2019-06-20T15:47:19.863Z,100572.16
2019-06-20T15:49:51.175Z,100566.52
2019-06-20T15:52:22.546Z,100569.02
2019-06-20T15:54:54.454Z,100566.08
2019-06-20T15:57:26.985Z,100571.61
2019-06-20T15:59:58.434Z,100572.70
2019-06-20T16:02:31.108Z,100564.23
2019-06-20T16:05:02.491Z,100566.46
2019-06-20T16:07:34.333Z,100562.00
2019-06-20T16:10:07.808Z,100555.73
2019-06-20T16:12:39.158Z,100561.31
2019-06-20T16:15:11.955Z,100563.98
2019-06-20T16:17:43.196Z,100565.20
2019-06-20T16:20:16.105Z,100560.95
2019-06-20T16:22:47.227Z,100566.81
2019-06-20T16:25:18.772Z,100566.20
2019-06-20T16:27:50.520Z,100559.27
2019-06-20T16:30:25.351Z,100563.69
2019-06-20T16:32:57.418Z,100571.21
2019-06-20T16:35:28.754Z,100572.86
2019-06-20T16:38:00.318Z,100572.44
2019-06-20T16:40:46.455Z,100570.05
2019-06-20T16:43:19.390Z,100574.29
2019-06-20T16:45:50.735Z,100564.34
2019-06-20T16:48:22.295Z,100569.64
2019-06-20T16:50:55.018Z,100571.84
2019-06-20T16:53:26.315Z,100578.12
2019-06-20T16:55:57.965Z,100572.56
2019-06-20T16:58:30.334Z,100574.53
2019-06-20T17:01:02.100Z,100578.98
2019-06-20T17:03:41.520Z,100578.64
2019-06-20T17:06:06.507Z,100582.25
2019-06-20T17:08:38.203Z,100581.20
2019-06-20T17:11:09.734Z,100575.96
2019-06-20T17:13:41.262Z,100577.26
2019-06-20T17:16:12.783Z,100582.52
2019-06-20T17:18:44.387Z,100582.80
2019-06-20T17:21:16.049Z,100585.33
2019-06-20T17:23:49.645Z,100582.25
2019-06-20T17:26:21.415Z,100589.58
2019-06-20T17:28:53.061Z,100587.39
2019-06-20T17:31:24.715Z,100586.98
2019-06-20T17:33:57.866Z,100586.19
2019-06-20T17:36:30.761Z,100574.02
2019-06-20T17:39:02.341Z,100592.62
2019-06-20T17:41:35.317Z,100592.95
2019-06-20T17:44:08.511Z,100596.72
2019-06-20T17:46:40.072Z,100604.08
2019-06-20T17:49:11.821Z,100601.54
2019-06-20T17:51:43.474Z,100604.65
2019-06-20T17:54:15.186Z,100603.07
2019-06-20T17:56:46.785Z,100612.66
2019-06-20T17:59:22.393Z,100613.93
2019-06-20T18:01:53.082Z,100613.42
2019-06-20T18:04:26.762Z,100609.47
2019-06-20T18:06:57.701Z,100605.92
2019-06-20T18:09:31.097Z,100609.11
2019-06-20T18:12:02.759Z,100616.48
2019-06-20T18:14:34.507Z,100620.27
2019-06-20T18:17:06.151Z,100624.27
2019-06-20T18:19:38.634Z,100623.52
2019-06-20T18:22:10.392Z,100624.50
2019-06-20T18:24:43.438Z,100626.81
2019-06-20T18:27:16.768Z,100626.42
2019-06-20T18:29:48.629Z,100626.42
2019-06-20T18:32:20.225Z,100630.00
2019-06-20T18:35:01.822Z,100631.42
2019-06-20T18:37:31.342Z,100632.94
2019-06-20T18:39:59.040Z,100635.38
2019-06-20T18:42:32.331Z,100637.13
2019-06-20T18:45:03.880Z,100642.33
2019-06-20T18:47:36.672Z,100644.98
2019-06-20T18:50:10.323Z,100649.41
2019-06-20T18:52:51.829Z,100643.08
2019-06-20T18:55:14.798Z,100650.09
2019-06-20T18:57:46.509Z,100651.63
2019-06-20T19:00:34.201Z,100649.20
2019-06-20T19:02:54.354Z,100650.11
2019-06-20T19:05:27.663Z,100649.85
2019-06-20T19:07:59.218Z,100654.13
2019-06-20T19:10:33.537Z,100659.24
2019-06-20T19:13:05.801Z,100657.13
2019-06-20T19:15:37.963Z,100654.09
2019-06-20T19:18:09.106Z,100654.45
2019-06-20T19:20:40.863Z,100654.27
2019-06-20T19:23:13.870Z,100654.52
2019-06-20T19:25:45.921Z,100650.89
2019-06-20T19:28:17.670Z,100651.39
2019-06-20T19:30:53.262Z,100652.77
2019-06-20T19:33:24.566Z,100650.98
2019-06-20T19:35:56.422Z,100650.80
2019-06-20T19:38:28.134Z,100650.92
2019-06-20T19:40:59.882Z,100655.00
2019-06-20T19:43:31.588Z,100652.64
2019-06-20T19:46:03.298Z,100662.14
2019-06-20T19:48:36.859Z,100665.70
2019-06-20T19:51:08.496Z,100655.93
2019-06-20T19:53:40.871Z,100659.92
2019-06-20T19:56:13.759Z,100668.17
2019-06-20T19:58:45.381Z,100670.43
2019-06-20T20:01:17.368Z,100672.00
2019-06-20T20:03:48.573Z,100671.27
2019-06-20T20:06:20.473Z,100669.59
2019-06-20T20:08:52.026Z,100672.93
2019-06-20T20:11:23.787Z,100673.45
2019-06-20T20:13:55.642Z,100676.55
2019-06-20T20:16:27.292Z,100677.45
2019-06-20T20:18:59.053Z,100682.23
2019-06-20T20:21:30.703Z,100672.66
2019-06-20T20:24:02.374Z,100683.53
2019-06-20T20:26:34.218Z,100678.08
2019-06-20T20:29:05.872Z,100686.03
2019-06-20T20:31:37.425Z,100686.03
2019-06-20T20:34:11.810Z,100698.03
2019-06-20T20:36:42.472Z,100700.09
2019-06-20T20:39:16.915Z,100701.75
2019-06-20T20:41:49.444Z,100705.72
2019-06-20T20:44:21.083Z,100704.66
2019-06-20T20:46:52.562Z,100701.55
2019-06-20T20:49:24.226Z,100711.59
2019-06-20T20:51:55.785Z,100712.75
2019-06-20T20:54:27.433Z,100712.66
2019-06-20T20:57:00.125Z,100708.44
2019-06-20T20:59:31.462Z,100721.22
2019-06-20T21:02:03.318Z,100719.16
2019-06-20T21:04:34.873Z,100721.79
2019-06-20T21:07:06.570Z,100724.94
2019-06-20T21:09:38.175Z,100729.66
2019-06-20T21:12:11.369Z,100740.97
2019-06-20T21:14:42.916Z,100743.50
2019-06-20T21:17:14.570Z,100744.42
2019-06-20T21:19:46.955Z,100751.25
2019-06-20T21:22:18.302Z,100750.16
2019-06-20T21:24:49.942Z,100751.36
2019-06-20T21:27:21.545Z,100752.06
2019-06-20T21:29:53.274Z,100752.11
2019-06-20T21:32:24.803Z,100754.95
2019-06-20T21:34:57.278Z,100763.27
2019-06-20T21:37:30.584Z,100766.06
2019-06-20T21:40:02.090Z,100764.19
2019-06-20T21:42:33.821Z,100762.38
2019-06-20T21:45:07.379Z,100768.41
2019-06-20T21:47:38.932Z,100773.78
2019-06-20T21:50:11.094Z,100771.52
2019-06-20T21:52:42.388Z,100776.77
2019-06-20T21:55:14.731Z,100773.47
2019-06-20T21:57:46.288Z,100777.76
2019-06-20T22:00:28.568Z,100784.04
2019-06-20T22:03:00.117Z,100779.55
2019-06-20T22:05:32.315Z,100777.94
2019-06-20T22:08:04.200Z,100780.27
2019-06-20T22:10:36.238Z,100785.13
2019-06-20T22:13:07.967Z,100783.77
2019-06-20T22:15:39.516Z,100772.37
2019-06-20T22:18:11.184Z,100773.21
2019-06-20T22:20:43.034Z,100774.45
2019-06-20T22:23:16.324Z,100782.89
2019-06-20T22:25:48.002Z,100783.70
2019-06-20T22:28:19.692Z,100780.66
2019-06-20T22:30:54.671Z,100782.11
2019-06-20T22:33:25.972Z,100778.47
2019-06-20T22:35:59.713Z,100774.88
2019-06-20T22:38:31.268Z,100778.67
2019-06-20T22:41:04.366Z,100782.37
2019-06-20T22:43:35.964Z,100772.27
2019-06-20T22:46:08.687Z,100772.27
2019-06-20T22:48:40.702Z,100772.19
2019-06-20T22:51:13.896Z,100769.44
2019-06-20T22:53:45.491Z,100770.60
2019-06-20T22:56:16.671Z,100781.09
2019-06-20T22:58:48.392Z,100779.08
2019-06-20T23:01:20.331Z,100780.52
2019-06-20T23:03:51.974Z,100781.70
2019-06-20T23:06:23.659Z,100782.58
2019-06-20T23:08:56.249Z,100784.55
2019-06-20T23:11:27.760Z,100781.70
2019-06-20T23:13:59.545Z,100780.03
2019-06-20T23:16:31.110Z,100779.22
2019-06-20T23:19:02.637Z,100776.15
2019-06-20T23:21:34.356Z,100777.36
2019-06-20T23:24:06.074Z,100781.31
2019-06-20T23:26:37.720Z,100778.20
2019-06-20T23:29:25.658Z,100786.42
2019-06-20T23:31:57.917Z,100788.16
2019-06-20T23:34:29.163Z,100782.83
2019-06-20T23:37:12.130Z,100786.49
2019-06-20T23:39:33.697Z,100780.85
2019-06-20T23:42:05.453Z,100785.35
2019-06-20T23:44:37.215Z,100787.63
2019-06-20T23:47:08.972Z,100785.99
2019-06-20T23:49:40.832Z,100786.81
2019-06-20T23:52:16.890Z,100797.59
2019-06-20T23:54:48.551Z,100801.56
2019-06-20T23:57:20.315Z,100793.09
2019-06-20T23:59:51.951Z,100796.80
